sensor_id;sensor_type;location;lat;lon;timestamp;temperature;humidity
5520;DHT22;2782;52.362;10.012;2023-07-20T00:00:51;22.90;69.20
5520;DHT22;2782;52.362;10.012;2023-07-20T00:01:54;22.90;69.20
5520;DHT22;2782;52.362;10.012;2023-07-20T00:03:10;22.90;69.20
5520;DHT22;2782;52.362;10.012;2023-07-20T00:04:12;22.90;69.20
5520;DHT22;2782;52.362;10.012;2023-07-20T00:05:15;22.80;69.10
5520;DHT22;2782;52.362;10.012;2023-07-20T00:06:18;22.90;69.20
5520;DHT22;2782;52.362;10.012;2023-07-20T00:07:20;22.90;69.20
5520;DHT22;2782;52.362;10.012;2023-07-20T00:08:20;22.90;69.20
5520;DHT22;2782;52.362;10.012;2023-07-20T00:09:22;22.90;69.20
5520;DHT22;2782;52.362;10.012;2023-07-20T00:10:23;22.80;69.10
5520;DHT22;2782;52.362;10.012;2023-07-20T00:11:26;22.90;69.20
5520;DHT22;2782;52.362;10.012;2023-07-20T00:12:27;22.80;69.10
5520;DHT22;2782;52.362;10.012;2023-07-20T00:13:29;22.90;69.30
5520;DHT22;2782;52.362;10.012;2023-07-20T00:14:30;22.90;69.20
5520;DHT22;2782;52.362;10.012;2023-07-20T00:15:33;22.90;69.20
5520;DHT22;2782;52.362;10.012;2023-07-20T00:16:34;22.80;69.00
5520;DHT22;2782;52.362;10.012;2023-07-20T00:17:36;22.90;69.20
5520;DHT22;2782;52.362;10.012;2023-07-20T00:18:37;22.90;69.10
5520;DHT22;2782;52.362;10.012;2023-07-20T00:19:39;22.90;69.10
5520;DHT22;2782;52.362;10.012;2023-07-20T00:20:40;22.80;69.00
5520;DHT22;2782;52.362;10.012;2023-07-20T00:21:42;22.80;69.00
5520;DHT22;2782;52.362;10.012;2023-07-20T00:22:43;22.90;69.10
5520;DHT22;2782;52.362;10.012;2023-07-20T00:23:43;22.80;69.10
5520;DHT22;2782;52.362;10.012;2023-07-20T00:24:45;22.90;69.10
5520;DHT22;2782;52.362;10.012;2023-07-20T00:25:47;22.90;69.20
5520;DHT22;2782;52.362;10.012;2023-07-20T00:26:49;22.90;69.10
5520;DHT22;2782;52.362;10.012;2023-07-20T00:27:49;22.90;69.20
5520;DHT22;2782;52.362;10.012;2023-07-20T00:28:51;22.80;68.90
5520;DHT22;2782;52.362;10.012;2023-07-20T00:29:52;22.90;69.10
5520;DHT22;2782;52.362;10.012;2023-07-20T00:30:55;22.90;69.10
5520;DHT22;2782;52.362;10.012;2023-07-20T00:31:55;22.90;69.10
5520;DHT22;2782;52.362;10.012;2023-07-20T00:32:57;22.90;69.10
5520;DHT22;2782;52.362;10.012;2023-07-20T00:33:58;22.90;69.00
5520;DHT22;2782;52.362;10.012;2023-07-20T00:34:59;22.80;69.00
5520;DHT22;2782;52.362;10.012;2023-07-20T00:36:00;22.80;68.90
5520;DHT22;2782;52.362;10.012;2023-07-20T00:37:02;22.90;68.90
5520;DHT22;2782;52.362;10.012;2023-07-20T00:38:03;22.80;68.80
5520;DHT22;2782;52.362;10.012;2023-07-20T00:39:05;22.80;68.90
5520;DHT22;2782;52.362;10.012;2023-07-20T00:40:07;22.90;69.00
5520;DHT22;2782;52.362;10.012;2023-07-20T00:41:08;22.80;68.90
5520;DHT22;2782;52.362;10.012;2023-07-20T00:42:09;22.80;68.80
5520;DHT22;2782;52.362;10.012;2023-07-20T00:43:10;22.80;68.80
5520;DHT22;2782;52.362;10.012;2023-07-20T00:44:11;22.80;68.90
5520;DHT22;2782;52.362;10.012;2023-07-20T00:45:12;22.80;69.00
5520;DHT22;2782;52.362;10.012;2023-07-20T00:46:15;22.80;68.80
5520;DHT22;2782;52.362;10.012;2023-07-20T00:47:16;22.80;68.90
5520;DHT22;2782;52.362;10.012;2023-07-20T00:48:18;22.80;68.90
5520;DHT22;2782;52.362;10.012;2023-07-20T00:49:19;22.80;68.80
5520;DHT22;2782;52.362;10.012;2023-07-20T00:50:22;22.80;68.90
5520;DHT22;2782;52.362;10.012;2023-07-20T00:51:23;22.80;68.90
5520;DHT22;2782;52.362;10.012;2023-07-20T00:52:27;22.80;68.90
5520;DHT22;2782;52.362;10.012;2023-07-20T00:53:30;22.80;68.80
5520;DHT22;2782;52.362;10.012;2023-07-20T00:54:31;22.80;68.80
5520;DHT22;2782;52.362;10.012;2023-07-20T00:55:33;22.80;68.80
5520;DHT22;2782;52.362;10.012;2023-07-20T00:56:34;22.80;68.80
5520;DHT22;2782;52.362;10.012;2023-07-20T00:57:36;22.80;68.80
5520;DHT22;2782;52.362;10.012;2023-07-20T00:58:36;22.80;68.80
5520;DHT22;2782;52.362;10.012;2023-07-20T00:59:37;22.80;68.70
5520;DHT22;2782;52.362;10.012;2023-07-20T01:00:39;22.80;68.80
5520;DHT22;2782;52.362;10.012;2023-07-20T01:01:41;22.80;68.80
5520;DHT22;2782;52.362;10.012;2023-07-20T01:02:43;22.80;68.70
5520;DHT22;2782;52.362;10.012;2023-07-20T01:03:43;22.80;68.60
5520;DHT22;2782;52.362;10.012;2023-07-20T01:04:45;22.80;68.60
5520;DHT22;2782;52.362;10.012;2023-07-20T01:05:56;22.80;68.70
5520;DHT22;2782;52.362;10.012;2023-07-20T01:07:06;22.80;68.60
5520;DHT22;2782;52.362;10.012;2023-07-20T01:08:15;22.80;68.50
5520;DHT22;2782;52.362;10.012;2023-07-20T01:09:23;22.80;68.70
5520;DHT22;2782;52.362;10.012;2023-07-20T01:10:31;22.80;68.70
5520;DHT22;2782;52.362;10.012;2023-07-20T01:11:38;22.80;68.60
5520;DHT22;2782;52.362;10.012;2023-07-20T01:12:45;22.80;68.70
5520;DHT22;2782;52.362;10.012;2023-07-20T01:13:47;22.80;68.70
5520;DHT22;2782;52.362;10.012;2023-07-20T01:14:49;22.70;68.70
5520;DHT22;2782;52.362;10.012;2023-07-20T01:15:50;22.70;68.60
5520;DHT22;2782;52.362;10.012;2023-07-20T01:16:53;22.80;68.60
5520;DHT22;2782;52.362;10.012;2023-07-20T01:17:54;22.80;68.70
5520;DHT22;2782;52.362;10.012;2023-07-20T01:18:56;22.80;68.80
5520;DHT22;2782;52.362;10.012;2023-07-20T01:19:57;22.80;68.70
5520;DHT22;2782;52.362;10.012;2023-07-20T01:21:00;22.80;68.60
5520;DHT22;2782;52.362;10.012;2023-07-20T01:22:09;22.80;68.70
5520;DHT22;2782;52.362;10.012;2023-07-20T01:23:48;22.80;68.60
5520;DHT22;2782;52.362;10.012;2023-07-20T01:25:11;22.70;68.70
5520;DHT22;2782;52.362;10.012;2023-07-20T01:26:37;22.70;68.70
5520;DHT22;2782;52.362;10.012;2023-07-20T01:28:16;22.70;68.50
5520;DHT22;2782;52.362;10.012;2023-07-20T01:29:34;22.70;68.70
5520;DHT22;2782;52.362;10.012;2023-07-20T01:30:45;22.70;68.70
5520;DHT22;2782;52.362;10.012;2023-07-20T01:31:52;22.70;68.70
5520;DHT22;2782;52.362;10.012;2023-07-20T01:32:55;22.70;68.70
5520;DHT22;2782;52.362;10.012;2023-07-20T01:33:58;22.70;68.80
5520;DHT22;2782;52.362;10.012;2023-07-20T01:35:01;22.70;68.80
5520;DHT22;2782;52.362;10.012;2023-07-20T01:36:04;22.70;68.90
5520;DHT22;2782;52.362;10.012;2023-07-20T01:37:06;22.70;68.70
5520;DHT22;2782;52.362;10.012;2023-07-20T01:38:09;22.70;68.80
5520;DHT22;2782;52.362;10.012;2023-07-20T01:39:10;22.70;68.90
5520;DHT22;2782;52.362;10.012;2023-07-20T01:40:13;22.70;68.80
5520;DHT22;2782;52.362;10.012;2023-07-20T01:41:15;22.70;68.70
5520;DHT22;2782;52.362;10.012;2023-07-20T01:42:17;22.70;68.60
5520;DHT22;2782;52.362;10.012;2023-07-20T01:43:18;22.70;68.50
5520;DHT22;2782;52.362;10.012;2023-07-20T01:44:20;22.70;68.50
5520;DHT22;2782;52.362;10.012;2023-07-20T01:45:20;22.70;68.60
5520;DHT22;2782;52.362;10.012;2023-07-20T01:46:22;22.70;68.60
5520;DHT22;2782;52.362;10.012;2023-07-20T01:47:24;22.70;68.70
5520;DHT22;2782;52.362;10.012;2023-07-20T01:48:26;22.70;68.60
5520;DHT22;2782;52.362;10.012;2023-07-20T01:49:26;22.70;68.40
5520;DHT22;2782;52.362;10.012;2023-07-20T01:50:28;22.70;68.50
5520;DHT22;2782;52.362;10.012;2023-07-20T01:51:29;22.70;68.60
5520;DHT22;2782;52.362;10.012;2023-07-20T01:52:30;22.70;68.50
5520;DHT22;2782;52.362;10.012;2023-07-20T01:53:31;22.70;68.40
5520;DHT22;2782;52.362;10.012;2023-07-20T01:54:33;22.70;68.40
5520;DHT22;2782;52.362;10.012;2023-07-20T01:55:34;22.70;68.30
5520;DHT22;2782;52.362;10.012;2023-07-20T01:56:35;22.70;68.30
5520;DHT22;2782;52.362;10.012;2023-07-20T01:57:37;22.70;68.30
5520;DHT22;2782;52.362;10.012;2023-07-20T01:58:39;22.70;68.30
5520;DHT22;2782;52.362;10.012;2023-07-20T01:59:40;22.70;68.50
5520;DHT22;2782;52.362;10.012;2023-07-20T02:00:41;22.70;68.40
5520;DHT22;2782;52.362;10.012;2023-07-20T02:01:42;22.70;68.40
5520;DHT22;2782;52.362;10.012;2023-07-20T02:02:45;22.70;68.40
5520;DHT22;2782;52.362;10.012;2023-07-20T02:03:46;22.70;68.20
5520;DHT22;2782;52.362;10.012;2023-07-20T02:04:47;22.70;68.30
5520;DHT22;2782;52.362;10.012;2023-07-20T02:05:48;22.70;68.40
5520;DHT22;2782;52.362;10.012;2023-07-20T02:06:50;22.70;68.40
5520;DHT22;2782;52.362;10.012;2023-07-20T02:07:51;22.70;68.30
5520;DHT22;2782;52.362;10.012;2023-07-20T02:08:53;22.70;68.40
5520;DHT22;2782;52.362;10.012;2023-07-20T02:09:53;22.70;68.30
5520;DHT22;2782;52.362;10.012;2023-07-20T02:10:55;22.70;68.30
5520;DHT22;2782;52.362;10.012;2023-07-20T02:11:56;22.70;68.30
5520;DHT22;2782;52.362;10.012;2023-07-20T02:12:57;22.70;68.20
5520;DHT22;2782;52.362;10.012;2023-07-20T02:13:58;22.70;68.30
5520;DHT22;2782;52.362;10.012;2023-07-20T02:15:01;22.70;68.20
5520;DHT22;2782;52.362;10.012;2023-07-20T02:16:01;22.70;68.40
5520;DHT22;2782;52.362;10.012;2023-07-20T02:17:03;22.70;68.20
5520;DHT22;2782;52.362;10.012;2023-07-20T02:18:05;22.70;68.20
5520;DHT22;2782;52.362;10.012;2023-07-20T02:19:07;22.70;68.20
5520;DHT22;2782;52.362;10.012;2023-07-20T02:20:08;22.70;68.20
5520;DHT22;2782;52.362;10.012;2023-07-20T02:21:10;22.70;68.20
5520;DHT22;2782;52.362;10.012;2023-07-20T02:22:11;22.70;68.10
5520;DHT22;2782;52.362;10.012;2023-07-20T02:23:13;22.70;68.20
5520;DHT22;2782;52.362;10.012;2023-07-20T02:24:13;22.70;68.00
5520;DHT22;2782;52.362;10.012;2023-07-20T02:25:14;22.70;68.10
5520;DHT22;2782;52.362;10.012;2023-07-20T02:26:16;22.70;68.20
5520;DHT22;2782;52.362;10.012;2023-07-20T02:27:17;22.70;68.20
5520;DHT22;2782;52.362;10.012;2023-07-20T02:28:19;22.70;68.10
5520;DHT22;2782;52.362;10.012;2023-07-20T02:29:19;22.70;68.20
5520;DHT22;2782;52.362;10.012;2023-07-20T02:30:21;22.70;68.10
5520;DHT22;2782;52.362;10.012;2023-07-20T02:31:22;22.70;67.90
5520;DHT22;2782;52.362;10.012;2023-07-20T02:32:24;22.70;67.90
5520;DHT22;2782;52.362;10.012;2023-07-20T02:33:26;22.70;67.90
5520;DHT22;2782;52.362;10.012;2023-07-20T02:34:27;22.70;68.00
5520;DHT22;2782;52.362;10.012;2023-07-20T02:35:28;22.70;68.00
5520;DHT22;2782;52.362;10.012;2023-07-20T02:36:30;22.70;67.90
5520;DHT22;2782;52.362;10.012;2023-07-20T02:37:33;22.70;67.90
5520;DHT22;2782;52.362;10.012;2023-07-20T02:38:34;22.70;68.00
5520;DHT22;2782;52.362;10.012;2023-07-20T02:39:35;22.70;68.10
5520;DHT22;2782;52.362;10.012;2023-07-20T02:40:37;22.70;68.10
5520;DHT22;2782;52.362;10.012;2023-07-20T02:41:37;22.70;67.90
5520;DHT22;2782;52.362;10.012;2023-07-20T02:42:39;22.70;67.90
5520;DHT22;2782;52.362;10.012;2023-07-20T02:43:40;22.70;68.00
5520;DHT22;2782;52.362;10.012;2023-07-20T02:44:41;22.70;67.90
5520;DHT22;2782;52.362;10.012;2023-07-20T02:45:42;22.70;67.90
5520;DHT22;2782;52.362;10.012;2023-07-20T02:46:44;22.70;67.80
5520;DHT22;2782;52.362;10.012;2023-07-20T02:47:45;22.70;67.90
5520;DHT22;2782;52.362;10.012;2023-07-20T02:48:48;22.70;67.80
5520;DHT22;2782;52.362;10.012;2023-07-20T02:49:49;22.70;67.80
5520;DHT22;2782;52.362;10.012;2023-07-20T02:50:50;22.70;67.90
5520;DHT22;2782;52.362;10.012;2023-07-20T02:51:51;22.70;67.90
5520;DHT22;2782;52.362;10.012;2023-07-20T02:52:53;22.70;67.80
5520;DHT22;2782;52.362;10.012;2023-07-20T02:53:53;22.70;67.70
5520;DHT22;2782;52.362;10.012;2023-07-20T02:54:55;22.70;67.80
5520;DHT22;2782;52.362;10.012;2023-07-20T02:55:56;22.70;67.80
5520;DHT22;2782;52.362;10.012;2023-07-20T02:56:57;22.70;67.70
5520;DHT22;2782;52.362;10.012;2023-07-20T02:57:58;22.70;67.70
5520;DHT22;2782;52.362;10.012;2023-07-20T02:59:01;22.70;67.70
5520;DHT22;2782;52.362;10.012;2023-07-20T03:00:02;22.70;67.80
5520;DHT22;2782;52.362;10.012;2023-07-20T03:01:04;22.70;67.70
5520;DHT22;2782;52.362;10.012;2023-07-20T03:02:06;22.70;67.70
5520;DHT22;2782;52.362;10.012;2023-07-20T03:03:10;22.70;67.70
5520;DHT22;2782;52.362;10.012;2023-07-20T03:04:13;22.70;67.80
5520;DHT22;2782;52.362;10.012;2023-07-20T03:05:13;22.70;67.70
5520;DHT22;2782;52.362;10.012;2023-07-20T03:06:17;22.70;67.90
5520;DHT22;2782;52.362;10.012;2023-07-20T03:07:17;22.70;67.80
5520;DHT22;2782;52.362;10.012;2023-07-20T03:08:19;22.70;67.70
5520;DHT22;2782;52.362;10.012;2023-07-20T03:09:20;22.70;67.60
5520;DHT22;2782;52.362;10.012;2023-07-20T03:10:22;22.70;67.70
5520;DHT22;2782;52.362;10.012;2023-07-20T03:11:23;22.70;67.80
5520;DHT22;2782;52.362;10.012;2023-07-20T03:12:24;22.70;67.90
5520;DHT22;2782;52.362;10.012;2023-07-20T03:13:25;22.60;67.80
5520;DHT22;2782;52.362;10.012;2023-07-20T03:14:27;22.70;67.70
5520;DHT22;2782;52.362;10.012;2023-07-20T03:15:28;22.70;67.70
5520;DHT22;2782;52.362;10.012;2023-07-20T03:16:29;22.70;67.70
5520;DHT22;2782;52.362;10.012;2023-07-20T03:17:33;22.70;67.80
5520;DHT22;2782;52.362;10.012;2023-07-20T03:18:34;22.70;67.80
5520;DHT22;2782;52.362;10.012;2023-07-20T03:19:37;22.70;67.80
5520;DHT22;2782;52.362;10.012;2023-07-20T03:20:38;22.70;67.80
5520;DHT22;2782;52.362;10.012;2023-07-20T03:21:39;22.70;67.70
5520;DHT22;2782;52.362;10.012;2023-07-20T03:22:41;22.70;67.60
5520;DHT22;2782;52.362;10.012;2023-07-20T03:23:43;22.70;67.60
5520;DHT22;2782;52.362;10.012;2023-07-20T03:24:43;22.60;67.50
5520;DHT22;2782;52.362;10.012;2023-07-20T03:25:44;22.60;67.50
5520;DHT22;2782;52.362;10.012;2023-07-20T03:26:46;22.70;67.60
5520;DHT22;2782;52.362;10.012;2023-07-20T03:27:46;22.60;67.60
5520;DHT22;2782;52.362;10.012;2023-07-20T03:28:48;22.60;67.60
5520;DHT22;2782;52.362;10.012;2023-07-20T03:29:49;22.60;67.50
5520;DHT22;2782;52.362;10.012;2023-07-20T03:30:53;22.70;67.70
5520;DHT22;2782;52.362;10.012;2023-07-20T03:31:53;22.70;67.60
5520;DHT22;2782;52.362;10.012;2023-07-20T03:32:55;22.60;67.50
5520;DHT22;2782;52.362;10.012;2023-07-20T03:33:56;22.70;67.60
5520;DHT22;2782;52.362;10.012;2023-07-20T03:34:58;22.70;67.60
5520;DHT22;2782;52.362;10.012;2023-07-20T03:36:00;22.70;67.50
5520;DHT22;2782;52.362;10.012;2023-07-20T03:37:00;22.70;67.60
5520;DHT22;2782;52.362;10.012;2023-07-20T03:38:04;22.60;67.50
5520;DHT22;2782;52.362;10.012;2023-07-20T03:39:05;22.70;67.60
5520;DHT22;2782;52.362;10.012;2023-07-20T03:40:08;22.70;67.60
5520;DHT22;2782;52.362;10.012;2023-07-20T03:41:08;22.70;67.60
5520;DHT22;2782;52.362;10.012;2023-07-20T03:42:12;22.70;67.60
5520;DHT22;2782;52.362;10.012;2023-07-20T03:43:13;22.70;67.50
5520;DHT22;2782;52.362;10.012;2023-07-20T03:44:14;22.70;67.50
5520;DHT22;2782;52.362;10.012;2023-07-20T03:45:15;22.60;67.40
5520;DHT22;2782;52.362;10.012;2023-07-20T03:46:17;22.60;67.40
5520;DHT22;2782;52.362;10.012;2023-07-20T03:47:17;22.60;67.30
5520;DHT22;2782;52.362;10.012;2023-07-20T03:48:20;22.60;67.40
5520;DHT22;2782;52.362;10.012;2023-07-20T03:49:21;22.60;67.30
5520;DHT22;2782;52.362;10.012;2023-07-20T03:50:24;22.60;67.40
5520;DHT22;2782;52.362;10.012;2023-07-20T03:51:26;22.60;67.40
5520;DHT22;2782;52.362;10.012;2023-07-20T03:52:28;22.60;67.40
5520;DHT22;2782;52.362;10.012;2023-07-20T03:53:29;22.60;67.40
5520;DHT22;2782;52.362;10.012;2023-07-20T03:54:30;22.60;67.30
5520;DHT22;2782;52.362;10.012;2023-07-20T03:55:31;22.60;67.30
5520;DHT22;2782;52.362;10.012;2023-07-20T03:56:33;22.60;67.30
5520;DHT22;2782;52.362;10.012;2023-07-20T03:57:35;22.60;67.40
5520;DHT22;2782;52.362;10.012;2023-07-20T03:58:37;22.60;67.40
5520;DHT22;2782;52.362;10.012;2023-07-20T03:59:39;22.60;67.40
5520;DHT22;2782;52.362;10.012;2023-07-20T04:00:44;22.60;67.40
5520;DHT22;2782;52.362;10.012;2023-07-20T04:01:45;22.60;67.30
5520;DHT22;2782;52.362;10.012;2023-07-20T04:02:47;22.60;67.30
5520;DHT22;2782;52.362;10.012;2023-07-20T04:03:47;22.60;67.30
5520;DHT22;2782;52.362;10.012;2023-07-20T04:04:49;22.60;67.40
5520;DHT22;2782;52.362;10.012;2023-07-20T04:05:53;22.60;67.40
5520;DHT22;2782;52.362;10.012;2023-07-20T04:06:55;22.60;67.30
5520;DHT22;2782;52.362;10.012;2023-07-20T04:07:56;22.60;67.40
5520;DHT22;2782;52.362;10.012;2023-07-20T04:08:57;22.60;67.40
5520;DHT22;2782;52.362;10.012;2023-07-20T04:09:58;22.60;67.40
5520;DHT22;2782;52.362;10.012;2023-07-20T04:11:01;22.60;67.30
5520;DHT22;2782;52.362;10.012;2023-07-20T04:12:02;22.60;67.60
5520;DHT22;2782;52.362;10.012;2023-07-20T04:13:04;22.60;67.70
5520;DHT22;2782;52.362;10.012;2023-07-20T04:14:05;22.60;67.60
5520;DHT22;2782;52.362;10.012;2023-07-20T04:15:08;22.60;67.80
5520;DHT22;2782;52.362;10.012;2023-07-20T04:16:08;22.60;67.90
5520;DHT22;2782;52.362;10.012;2023-07-20T04:17:09;22.60;67.90
5520;DHT22;2782;52.362;10.012;2023-07-20T04:18:13;22.70;68.00
5520;DHT22;2782;52.362;10.012;2023-07-20T04:19:14;22.60;68.00
5520;DHT22;2782;52.362;10.012;2023-07-20T04:20:16;22.60;68.00
5520;DHT22;2782;52.362;10.012;2023-07-20T04:21:19;22.60;67.90
5520;DHT22;2782;52.362;10.012;2023-07-20T04:22:21;22.60;67.80
5520;DHT22;2782;52.362;10.012;2023-07-20T04:23:22;22.60;67.90
5520;DHT22;2782;52.362;10.012;2023-07-20T04:24:23;22.60;67.90
5520;DHT22;2782;52.362;10.012;2023-07-20T04:25:24;22.70;68.10
5520;DHT22;2782;52.362;10.012;2023-07-20T04:26:26;22.60;68.00
5520;DHT22;2782;52.362;10.012;2023-07-20T04:27:27;22.70;68.10
5520;DHT22;2782;52.362;10.012;2023-07-20T04:28:28;22.70;68.10
5520;DHT22;2782;52.362;10.012;2023-07-20T04:29:29;22.60;67.90
5520;DHT22;2782;52.362;10.012;2023-07-20T04:30:31;22.60;68.60
5520;DHT22;2782;52.362;10.012;2023-07-20T04:31:31;22.70;68.00
5520;DHT22;2782;52.362;10.012;2023-07-20T04:32:33;22.60;67.90
5520;DHT22;2782;52.362;10.012;2023-07-20T04:33:34;22.60;66.70
5520;DHT22;2782;52.362;10.012;2023-07-20T04:34:36;22.50;65.30
5520;DHT22;2782;52.362;10.012;2023-07-20T04:35:48;22.40;65.10
5520;DHT22;2782;52.362;10.012;2023-07-20T04:36:51;22.20;65.00
5520;DHT22;2782;52.362;10.012;2023-07-20T04:37:52;22.10;65.20
5520;DHT22;2782;52.362;10.012;2023-07-20T04:38:53;21.90;65.40
5520;DHT22;2782;52.362;10.012;2023-07-20T04:39:54;21.90;65.80
5520;DHT22;2782;52.362;10.012;2023-07-20T04:40:55;21.80;65.90
5520;DHT22;2782;52.362;10.012;2023-07-20T04:41:57;21.60;65.90
5520;DHT22;2782;52.362;10.012;2023-07-20T04:42:58;21.60;66.20
5520;DHT22;2782;52.362;10.012;2023-07-20T04:44:00;21.50;67.10
5520;DHT22;2782;52.362;10.012;2023-07-20T04:45:00;21.40;66.50
5520;DHT22;2782;52.362;10.012;2023-07-20T04:46:02;21.40;67.00
5520;DHT22;2782;52.362;10.012;2023-07-20T04:47:03;21.40;67.10
5520;DHT22;2782;52.362;10.012;2023-07-20T04:48:08;21.40;67.30
5520;DHT22;2782;52.362;10.012;2023-07-20T04:49:09;21.50;67.60
5520;DHT22;2782;52.362;10.012;2023-07-20T04:50:13;21.50;67.70
5520;DHT22;2782;52.362;10.012;2023-07-20T04:51:13;21.60;68.50
5520;DHT22;2782;52.362;10.012;2023-07-20T04:52:16;21.60;68.20
5520;DHT22;2782;52.362;10.012;2023-07-20T04:53:17;21.70;68.40
5520;DHT22;2782;52.362;10.012;2023-07-20T04:54:18;21.70;68.20
5520;DHT22;2782;52.362;10.012;2023-07-20T04:55:20;21.80;68.10
5520;DHT22;2782;52.362;10.012;2023-07-20T04:56:22;21.80;68.10
5520;DHT22;2782;52.362;10.012;2023-07-20T04:57:25;21.80;68.10
5520;DHT22;2782;52.362;10.012;2023-07-20T04:58:26;21.90;68.20
5520;DHT22;2782;52.362;10.012;2023-07-20T04:59:27;21.90;69.00
5520;DHT22;2782;52.362;10.012;2023-07-20T05:00:29;22.00;68.30
5520;DHT22;2782;52.362;10.012;2023-07-20T05:01:30;22.00;68.10
5520;DHT22;2782;52.362;10.012;2023-07-20T05:02:32;22.00;68.20
5520;DHT22;2782;52.362;10.012;2023-07-20T05:03:34;22.10;68.30
5520;DHT22;2782;52.362;10.012;2023-07-20T05:04:36;22.10;68.40
5520;DHT22;2782;52.362;10.012;2023-07-20T05:05:38;22.10;68.70
5520;DHT22;2782;52.362;10.012;2023-07-20T05:06:39;22.20;68.90
5520;DHT22;2782;52.362;10.012;2023-07-20T05:07:42;22.20;68.80
5520;DHT22;2782;52.362;10.012;2023-07-20T05:08:43;22.20;68.80
5520;DHT22;2782;52.362;10.012;2023-07-20T05:09:46;22.30;69.10
5520;DHT22;2782;52.362;10.012;2023-07-20T05:10:47;22.40;69.40
5520;DHT22;2782;52.362;10.012;2023-07-20T05:11:49;22.40;69.30
5520;DHT22;2782;52.362;10.012;2023-07-20T05:12:50;22.40;69.50
5520;DHT22;2782;52.362;10.012;2023-07-20T05:13:53;22.40;69.70
5520;DHT22;2782;52.362;10.012;2023-07-20T05:14:54;22.50;70.00
5520;DHT22;2782;52.362;10.012;2023-07-20T05:15:56;22.50;69.80
5520;DHT22;2782;52.362;10.012;2023-07-20T05:16:58;22.50;69.90
5520;DHT22;2782;52.362;10.012;2023-07-20T05:18:01;22.50;69.70
5520;DHT22;2782;52.362;10.012;2023-07-20T05:19:02;22.50;69.70
5520;DHT22;2782;52.362;10.012;2023-07-20T05:20:06;22.50;69.60
5520;DHT22;2782;52.362;10.012;2023-07-20T05:21:07;22.60;69.80
5520;DHT22;2782;52.362;10.012;2023-07-20T05:22:10;22.50;69.20
5520;DHT22;2782;52.362;10.012;2023-07-20T05:23:14;22.60;68.80
5520;DHT22;2782;52.362;10.012;2023-07-20T05:24:16;22.60;68.50
5520;DHT22;2782;52.362;10.012;2023-07-20T05:25:17;22.60;68.30
5520;DHT22;2782;52.362;10.012;2023-07-20T05:26:19;22.50;67.90
5520;DHT22;2782;52.362;10.012;2023-07-20T05:27:21;22.50;67.60
5520;DHT22;2782;52.362;10.012;2023-07-20T05:28:23;22.50;67.30
5520;DHT22;2782;52.362;10.012;2023-07-20T05:29:27;22.50;67.30
5520;DHT22;2782;52.362;10.012;2023-07-20T05:30:28;22.50;67.30
5520;DHT22;2782;52.362;10.012;2023-07-20T05:31:48;22.50;67.40
5520;DHT22;2782;52.362;10.012;2023-07-20T05:33:12;22.60;67.50
5520;DHT22;2782;52.362;10.012;2023-07-20T05:36:25;22.60;67.90
5520;DHT22;2782;52.362;10.012;2023-07-20T05:38:33;22.50;68.30
5520;DHT22;2782;52.362;10.012;2023-07-20T05:40:19;22.50;71.00
5520;DHT22;2782;52.362;10.012;2023-07-20T05:41:51;22.50;71.70
5520;DHT22;2782;52.362;10.012;2023-07-20T05:45:53;22.40;70.60
5520;DHT22;2782;52.362;10.012;2023-07-20T05:46:56;22.40;70.50
5520;DHT22;2782;52.362;10.012;2023-07-20T05:47:57;22.40;70.60
5520;DHT22;2782;52.362;10.012;2023-07-20T05:49:00;22.40;70.60
5520;DHT22;2782;52.362;10.012;2023-07-20T05:50:01;22.40;70.40
5520;DHT22;2782;52.362;10.012;2023-07-20T05:51:04;22.40;69.60
5520;DHT22;2782;52.362;10.012;2023-07-20T05:52:06;22.40;68.70
5520;DHT22;2782;52.362;10.012;2023-07-20T05:53:08;22.30;68.30
5520;DHT22;2782;52.362;10.012;2023-07-20T05:54:10;22.20;68.00
5520;DHT22;2782;52.362;10.012;2023-07-20T05:55:13;22.10;67.80
5520;DHT22;2782;52.362;10.012;2023-07-20T05:56:14;22.10;68.10
5520;DHT22;2782;52.362;10.012;2023-07-20T05:57:17;22.10;68.30
5520;DHT22;2782;52.362;10.012;2023-07-20T05:58:18;22.00;68.40
5520;DHT22;2782;52.362;10.012;2023-07-20T05:59:20;21.90;68.40
5520;DHT22;2782;52.362;10.012;2023-07-20T06:00:21;21.80;68.60
5520;DHT22;2782;52.362;10.012;2023-07-20T06:01:45;21.80;68.90
5520;DHT22;2782;52.362;10.012;2023-07-20T06:02:45;21.80;68.90
5520;DHT22;2782;52.362;10.012;2023-07-20T06:03:48;21.70;69.20
5520;DHT22;2782;52.362;10.012;2023-07-20T06:04:49;21.60;69.20
5520;DHT22;2782;52.362;10.012;2023-07-20T06:05:50;21.60;69.30
5520;DHT22;2782;52.362;10.012;2023-07-20T06:06:52;21.60;69.40
5520;DHT22;2782;52.362;10.012;2023-07-20T06:07:54;21.60;69.60
5520;DHT22;2782;52.362;10.012;2023-07-20T06:08:55;21.50;69.70
5520;DHT22;2782;52.362;10.012;2023-07-20T06:09:58;21.50;70.70
5520;DHT22;2782;52.362;10.012;2023-07-20T06:11:00;21.50;70.20
5520;DHT22;2782;52.362;10.012;2023-07-20T06:12:02;21.50;70.20
5520;DHT22;2782;52.362;10.012;2023-07-20T06:13:02;21.40;70.90
5520;DHT22;2782;52.362;10.012;2023-07-20T06:14:05;21.40;70.20
5520;DHT22;2782;52.362;10.012;2023-07-20T06:15:16;21.40;70.20
5520;DHT22;2782;52.362;10.012;2023-07-20T06:16:25;21.30;70.30
5520;DHT22;2782;52.362;10.012;2023-07-20T06:17:26;21.30;70.70
5520;DHT22;2782;52.362;10.012;2023-07-20T06:18:28;21.30;70.70
5520;DHT22;2782;52.362;10.012;2023-07-20T06:19:29;21.30;70.90
5520;DHT22;2782;52.362;10.012;2023-07-20T06:20:31;21.20;71.00
5520;DHT22;2782;52.362;10.012;2023-07-20T06:21:32;21.20;71.30
5520;DHT22;2782;52.362;10.012;2023-07-20T06:22:34;21.20;71.70
5520;DHT22;2782;52.362;10.012;2023-07-20T06:23:35;21.20;71.80
5520;DHT22;2782;52.362;10.012;2023-07-20T06:24:37;21.10;72.50
5520;DHT22;2782;52.362;10.012;2023-07-20T06:25:40;21.10;72.00
5520;DHT22;2782;52.362;10.012;2023-07-20T06:26:42;21.10;71.90
5520;DHT22;2782;52.362;10.012;2023-07-20T06:27:43;21.10;72.10
5520;DHT22;2782;52.362;10.012;2023-07-20T06:28:45;21.10;72.30
5520;DHT22;2782;52.362;10.012;2023-07-20T06:29:45;21.20;72.60
5520;DHT22;2782;52.362;10.012;2023-07-20T06:30:47;21.10;72.60
5520;DHT22;2782;52.362;10.012;2023-07-20T06:31:48;21.10;73.00
5520;DHT22;2782;52.362;10.012;2023-07-20T06:32:50;21.20;73.00
5520;DHT22;2782;52.362;10.012;2023-07-20T06:33:50;21.10;73.00
5520;DHT22;2782;52.362;10.012;2023-07-20T06:34:52;21.10;73.10
5520;DHT22;2782;52.362;10.012;2023-07-20T06:35:53;21.20;73.20
5520;DHT22;2782;52.362;10.012;2023-07-20T06:36:54;21.10;73.30
5520;DHT22;2782;52.362;10.012;2023-07-20T06:37:56;21.20;73.60
5520;DHT22;2782;52.362;10.012;2023-07-20T06:38:57;21.10;73.20
5520;DHT22;2782;52.362;10.012;2023-07-20T06:39:58;21.20;72.90
5520;DHT22;2782;52.362;10.012;2023-07-20T06:41:00;21.20;72.80
5520;DHT22;2782;52.362;10.012;2023-07-20T06:42:02;21.20;73.10
5520;DHT22;2782;52.362;10.012;2023-07-20T06:43:03;21.20;73.00
5520;DHT22;2782;52.362;10.012;2023-07-20T06:44:04;21.20;72.90
5520;DHT22;2782;52.362;10.012;2023-07-20T06:45:06;21.30;72.90
5520;DHT22;2782;52.362;10.012;2023-07-20T06:46:07;21.30;72.90
5520;DHT22;2782;52.362;10.012;2023-07-20T06:47:08;21.40;73.00
5520;DHT22;2782;52.362;10.012;2023-07-20T06:48:09;21.40;72.90